createdAt,value
2018-04-26T00:01:27.126Z,5.67
2018-04-26T00:03:53.728Z,6.27
2018-04-26T00:06:20.373Z,5.43
2018-04-26T00:08:50.929Z,6.37
2018-04-26T00:11:17.502Z,6.10
2018-04-26T00:13:44.413Z,5.73
2018-04-26T00:16:11.143Z,6.03
2018-04-26T00:18:38.721Z,5.43
2018-04-26T00:21:05.214Z,6.57
2018-04-26T00:23:31.902Z,6.10
2018-04-26T00:25:58.530Z,5.70
2018-04-26T00:28:25.298Z,6.43
2018-04-26T00:30:51.994Z,6.80
2018-04-26T00:33:18.601Z,6.00
2018-04-26T00:35:45.179Z,6.30
2018-04-26T00:38:11.979Z,5.97
2018-04-26T00:40:38.640Z,5.97
2018-04-26T00:43:05.238Z,6.50
2018-04-26T00:45:31.998Z,5.87
2018-04-26T00:48:02.205Z,6.43
2018-04-26T00:50:28.665Z,6.33
2018-04-26T00:52:55.349Z,5.67
2018-04-26T00:55:22.045Z,6.17
2018-04-26T00:57:52.034Z,6.30
2018-04-26T01:00:18.771Z,6.23
2018-04-26T01:02:45.495Z,6.00
2018-04-26T01:05:12.133Z,6.53
2018-04-26T01:07:44.778Z,6.30
2018-04-26T01:10:11.545Z,5.80
2018-04-26T01:12:38.241Z,6.30
2018-04-26T01:15:04.933Z,5.63
2018-04-26T01:17:36.244Z,6.67
2018-04-26T01:20:02.899Z,5.77
2018-04-26T01:22:29.356Z,6.20
2018-04-26T01:24:56.056Z,6.23
2018-04-26T01:27:22.683Z,6.20
2018-04-26T01:29:49.326Z,5.93
2018-04-26T01:32:16.025Z,5.80
2018-04-26T01:34:42.696Z,5.80
2018-04-26T01:37:21.391Z,6.23
2018-04-26T01:39:48.005Z,6.00
2018-04-26T01:42:14.637Z,5.73
2018-04-26T01:44:41.336Z,5.80
2018-04-26T01:47:07.901Z,5.87
2018-04-26T01:49:38.086Z,6.00
2018-04-26T01:52:05.629Z,4.97
2018-04-26T01:54:32.370Z,6.10
2018-04-26T01:56:58.954Z,6.33
2018-04-26T01:59:28.788Z,5.97
2018-04-26T02:01:55.499Z,5.07
2018-04-26T02:04:22.120Z,4.83
2018-04-26T02:06:48.681Z,5.17
2018-04-26T02:09:15.471Z,5.20
2018-04-26T02:11:42.045Z,5.50
2018-04-26T02:14:08.737Z,5.10
2018-04-26T02:16:35.462Z,5.50
2018-04-26T02:19:06.007Z,5.33
2018-04-26T02:21:32.624Z,5.53
2018-04-26T02:23:59.148Z,4.93
2018-04-26T02:26:25.790Z,5.00
2018-04-26T02:28:53.558Z,4.80
2018-04-26T02:31:20.148Z,5.13
2018-04-26T02:33:46.903Z,5.10
2018-04-26T02:36:13.687Z,4.83
2018-04-26T02:38:43.301Z,5.10
2018-04-26T02:41:09.910Z,4.90
2018-04-26T02:43:36.594Z,4.63
2018-04-26T02:46:03.239Z,4.83
2018-04-26T02:48:31.241Z,4.73
2018-04-26T02:50:57.886Z,4.90
2018-04-26T02:53:24.577Z,4.67
2018-04-26T02:55:51.295Z,4.77
2018-04-26T02:58:18.910Z,5.07
2018-04-26T03:00:45.562Z,4.83
2018-04-26T03:03:12.269Z,4.40
2018-04-26T03:05:38.880Z,4.27
2018-04-26T03:08:08.923Z,4.70
2018-04-26T03:10:35.672Z,3.93
2018-04-26T03:13:02.321Z,4.37
2018-04-26T03:15:28.912Z,4.30
2018-04-26T03:17:55.787Z,5.00
2018-04-26T03:20:22.348Z,4.10
2018-04-26T03:22:49.006Z,5.10
2018-04-26T03:25:15.866Z,3.70
2018-04-26T03:28:06.551Z,4.57
2018-04-26T03:30:33.350Z,3.97
2018-04-26T03:32:59.985Z,3.97
2018-04-26T03:35:26.597Z,4.47
2018-04-26T03:37:56.321Z,4.80
2018-04-26T03:40:22.945Z,3.97
2018-04-26T03:42:49.656Z,4.17
2018-04-26T03:45:16.390Z,4.30
2018-04-26T03:47:44.209Z,5.00
2018-04-26T03:50:10.809Z,4.87
2018-04-26T03:52:37.429Z,5.20
2018-04-26T03:55:03.967Z,4.70
2018-04-26T03:57:34.317Z,5.13
2018-04-26T04:00:12.906Z,4.50
2018-04-26T04:02:51.337Z,4.30
2018-04-26T04:05:30.024Z,4.03
2018-04-26T04:08:00.647Z,4.37
2018-04-26T04:10:27.217Z,4.00
2018-04-26T04:12:53.846Z,4.53
2018-04-26T04:15:20.465Z,4.33
2018-04-26T04:17:53.340Z,4.33
2018-04-26T04:20:19.934Z,4.53
2018-04-26T04:22:46.535Z,4.40
2018-04-26T04:25:13.176Z,4.50
2018-04-26T04:27:40.822Z,4.53
2018-04-26T04:30:07.433Z,4.43
2018-04-26T04:32:34.130Z,5.43
2018-04-26T04:35:00.710Z,5.03
2018-04-26T04:37:37.559Z,4.90
2018-04-26T04:40:04.272Z,5.03
2018-04-26T04:42:31.030Z,4.97
2018-04-26T04:44:57.706Z,5.83
2018-04-26T04:47:28.189Z,5.77
2018-04-26T04:49:54.817Z,7.00
2018-04-26T04:52:21.570Z,7.37
2018-04-26T04:54:48.059Z,6.97
2018-04-26T04:57:15.762Z,6.97
2018-04-26T04:59:42.374Z,7.60
2018-04-26T05:02:09.096Z,8.90
2018-04-26T05:04:35.628Z,8.90
2018-04-26T05:07:07.309Z,7.93
2018-04-26T05:09:33.930Z,9.13
2018-04-26T05:12:00.604Z,9.33
2018-04-26T05:14:27.155Z,9.00
2018-04-26T05:16:57.302Z,8.70
2018-04-26T05:19:24.037Z,9.80
2018-04-26T05:21:50.529Z,9.47
2018-04-26T05:24:17.208Z,10.70
2018-04-26T05:26:48.606Z,10.40
2018-04-26T05:29:15.330Z,10.07
2018-04-26T05:31:42.002Z,10.17
2018-04-26T05:34:08.883Z,9.70
2018-04-26T05:36:35.470Z,9.73
2018-04-26T05:39:02.069Z,9.67
2018-04-26T05:41:28.775Z,9.27
2018-04-26T05:43:55.558Z,8.83
2018-04-26T05:46:22.473Z,9.20
2018-04-26T05:48:59.428Z,8.53
2018-04-26T05:51:26.130Z,8.77
2018-04-26T05:53:52.642Z,7.63
2018-04-26T05:56:19.325Z,8.30
2018-04-26T05:58:49.556Z,7.83
2018-04-26T06:01:16.175Z,7.67
2018-04-26T06:03:42.894Z,8.50
2018-04-26T06:06:09.501Z,8.40
2018-04-26T06:08:42.428Z,8.20
2018-04-26T06:11:09.125Z,7.00
2018-04-26T06:13:35.809Z,6.53
2018-04-26T06:16:02.577Z,5.83
2018-04-26T06:18:34.442Z,5.83
2018-04-26T06:21:01.157Z,8.33
2018-04-26T06:23:27.881Z,10.03
2018-04-26T06:25:54.642Z,17.40
2018-04-26T06:28:27.221Z,19.63
2018-04-26T06:30:53.934Z,25.43
2018-04-26T06:33:20.641Z,27.37
2018-04-26T06:35:47.335Z,28.30
2018-04-26T06:38:18.678Z,29.23
2018-04-26T06:40:45.296Z,29.33
2018-04-26T06:43:11.996Z,26.57
2018-04-26T06:45:38.731Z,27.53
2018-04-26T06:48:09.281Z,28.50
2018-04-26T06:50:36.012Z,26.80
2018-04-26T06:53:02.641Z,26.00
2018-04-26T06:55:29.304Z,25.03
2018-04-26T06:58:01.328Z,23.27
2018-04-26T07:00:27.900Z,22.83
2018-04-26T07:02:54.423Z,24.77
2018-04-26T07:05:21.098Z,21.67
2018-04-26T07:07:52.249Z,20.80
2018-04-26T07:10:19.007Z,17.53
2018-04-26T07:12:45.594Z,16.00
2018-04-26T07:15:12.148Z,9.00
2018-04-26T07:17:51.773Z,12.00
2018-04-26T07:20:18.401Z,7.50
2018-04-26T07:22:45.037Z,11.87
2018-04-26T07:25:11.610Z,10.73
2018-04-26T07:27:41.283Z,7.23
2018-04-26T07:30:07.907Z,11.10
2018-04-26T07:32:34.632Z,10.10
2018-04-26T07:35:05.026Z,8.27
2018-04-26T07:37:35.262Z,8.17
2018-04-26T07:40:01.911Z,7.60
2018-04-26T07:42:28.583Z,8.90
2018-04-26T07:44:55.250Z,8.03
2018-04-26T07:47:26.463Z,6.77
2018-04-26T07:49:53.174Z,6.77
2018-04-26T07:52:19.729Z,5.40
2018-04-26T07:54:46.406Z,5.17
2018-04-26T07:57:23.011Z,5.13
2018-04-26T07:59:49.758Z,5.17
2018-04-26T08:02:16.384Z,4.47
2018-04-26T08:04:43.041Z,4.27
2018-04-26T08:07:23.975Z,4.60
2018-04-26T08:09:50.654Z,5.00
2018-04-26T08:12:17.298Z,4.50
2018-04-26T08:14:44.098Z,4.50
2018-04-26T08:17:21.254Z,4.73
2018-04-26T08:19:47.817Z,4.80
2018-04-26T08:22:14.497Z,4.57
2018-04-26T08:24:41.036Z,4.50
2018-04-26T08:27:10.753Z,4.03
2018-04-26T08:29:37.427Z,4.50
2018-04-26T08:32:03.996Z,4.07
2018-04-26T08:34:30.527Z,4.23
2018-04-26T08:37:00.550Z,4.50
2018-04-26T08:39:27.118Z,4.80
2018-04-26T08:41:53.743Z,5.23
2018-04-26T08:44:20.353Z,5.40
2018-04-26T08:46:50.319Z,5.60
2018-04-26T08:49:16.994Z,5.33
2018-04-26T08:51:44.462Z,5.50
2018-04-26T08:54:11.037Z,5.37
2018-04-26T08:56:44.161Z,5.63
2018-04-26T08:59:10.564Z,5.00
2018-04-26T09:01:37.116Z,5.27
2018-04-26T09:04:03.682Z,5.00
2018-04-26T09:06:38.005Z,5.70
2018-04-26T09:09:04.640Z,6.80
2018-04-26T09:11:31.329Z,7.13
2018-04-26T09:13:58.002Z,6.53
2018-04-26T09:16:24.845Z,6.03
2018-04-26T09:18:51.413Z,5.47
2018-04-26T09:21:18.030Z,6.43
2018-04-26T09:23:44.652Z,6.10
2018-04-26T09:26:14.639Z,5.77
2018-04-26T09:28:41.250Z,6.53
2018-04-26T09:31:07.884Z,7.17
2018-04-26T09:33:34.602Z,7.17
2018-04-26T09:36:07.085Z,6.33
2018-04-26T09:38:33.776Z,6.60
2018-04-26T09:41:00.479Z,5.63
2018-04-26T09:43:27.064Z,5.70
2018-04-26T09:45:53.643Z,5.90
2018-04-26T09:48:20.525Z,4.90
2018-04-26T09:50:47.189Z,4.90
2018-04-26T09:53:13.743Z,4.67
2018-04-26T09:55:40.233Z,5.00
2018-04-26T09:58:10.590Z,4.82
2018-04-26T10:00:42.090Z,5.20
2018-04-26T10:03:08.812Z,5.07
2018-04-26T10:05:41.291Z,4.60
2018-04-26T10:08:09.011Z,5.40
2018-04-26T10:10:35.750Z,5.43
2018-04-26T10:13:02.425Z,4.60
2018-04-26T10:15:29.131Z,5.00
2018-04-26T10:18:12.958Z,4.77
2018-04-26T10:20:39.638Z,4.68
2018-04-26T10:23:06.254Z,4.27
2018-04-26T10:25:32.913Z,4.85
2018-04-26T10:28:03.670Z,4.17
2018-04-26T10:30:30.393Z,4.55
2018-04-26T10:32:57.192Z,4.55
2018-04-26T10:35:23.839Z,5.07
2018-04-26T10:37:54.543Z,4.45
2018-04-26T10:40:21.121Z,4.75
2018-04-26T10:42:47.697Z,4.68
2018-04-26T10:45:14.425Z,4.03
2018-04-26T10:47:51.171Z,4.25
2018-04-26T10:50:17.929Z,4.53
2018-04-26T10:52:44.645Z,4.45
2018-04-26T10:55:11.328Z,4.10
2018-04-26T10:57:45.118Z,4.47
2018-04-26T11:00:11.776Z,4.62
2018-04-26T11:02:38.382Z,3.92
2018-04-26T11:05:04.905Z,4.55
2018-04-26T11:07:38.326Z,4.32
2018-04-26T11:10:05.020Z,3.87
2018-04-26T11:12:31.622Z,4.00
2018-04-26T11:14:58.278Z,4.15
2018-04-26T11:17:28.678Z,4.60
2018-04-26T11:19:55.384Z,3.67
2018-04-26T11:22:22.121Z,4.00
2018-04-26T11:24:48.742Z,4.17
2018-04-26T11:27:16.509Z,3.67
2018-04-26T11:29:43.106Z,3.70
2018-04-26T11:32:09.742Z,3.53
2018-04-26T11:34:36.354Z,3.50
2018-04-26T11:37:06.479Z,3.80
2018-04-26T11:39:33.125Z,4.00
2018-04-26T11:41:59.712Z,3.80
2018-04-26T11:44:26.348Z,3.83
2018-04-26T11:46:53.227Z,3.70
2018-04-26T11:49:20.468Z,3.60
2018-04-26T11:51:47.131Z,4.35
2018-04-26T11:54:13.830Z,3.77
2018-04-26T11:56:47.915Z,3.95
2018-04-26T11:59:14.567Z,4.20
2018-04-26T12:01:41.196Z,3.70
2018-04-26T12:04:07.820Z,3.92
2018-04-26T12:06:41.913Z,3.70
2018-04-26T12:09:08.956Z,3.85
2018-04-26T12:11:35.658Z,4.05
2018-04-26T12:14:02.350Z,4.30
2018-04-26T12:16:42.713Z,4.65
2018-04-26T12:19:09.349Z,4.72
2018-04-26T12:21:35.942Z,4.10
2018-04-26T12:24:02.607Z,4.23
2018-04-26T12:26:39.885Z,4.83
2018-04-26T12:29:06.590Z,4.30
2018-04-26T12:31:33.194Z,3.87
2018-04-26T12:33:59.885Z,4.33
2018-04-26T12:36:32.884Z,4.80
2018-04-26T12:38:59.525Z,4.17
2018-04-26T12:41:26.246Z,4.60
2018-04-26T12:43:53.057Z,4.20
2018-04-26T12:46:29.806Z,4.30
2018-04-26T12:48:56.555Z,4.60
2018-04-26T12:51:23.251Z,4.30
2018-04-26T12:53:49.974Z,4.57
2018-04-26T12:56:26.704Z,4.00
2018-04-26T12:58:53.440Z,4.47
2018-04-26T13:01:20.127Z,3.83
2018-04-26T13:03:46.758Z,3.78
2018-04-26T13:06:14.317Z,4.20
2018-04-26T13:08:40.885Z,4.23
2018-04-26T13:11:07.747Z,4.40
2018-04-26T13:13:34.164Z,4.47
2018-04-26T13:16:07.833Z,3.90
2018-04-26T13:18:34.602Z,3.90
2018-04-26T13:21:01.309Z,3.50
2018-04-26T13:23:27.882Z,4.67
2018-04-26T13:25:58.133Z,4.33
2018-04-26T13:28:24.765Z,4.57
2018-04-26T13:30:51.375Z,3.67
2018-04-26T13:33:18.079Z,4.13
2018-04-26T13:35:48.166Z,4.33
2018-04-26T13:38:14.862Z,5.40
2018-04-26T13:40:41.506Z,4.97
2018-04-26T13:43:08.273Z,4.63
2018-04-26T13:45:34.894Z,4.87
2018-04-26T13:48:01.535Z,4.07
2018-04-26T13:50:28.800Z,4.53
2018-04-26T13:52:55.375Z,4.78
2018-04-26T13:55:22.050Z,4.22
2018-04-26T13:57:48.698Z,4.70
2018-04-26T14:00:15.289Z,4.25
2018-04-26T14:02:41.866Z,4.28
2018-04-26T14:05:08.369Z,4.50
2018-04-26T14:07:39.523Z,4.12
2018-04-26T14:10:06.156Z,4.53
2018-04-26T14:12:32.803Z,4.13
2018-04-26T14:14:59.911Z,4.35
2018-04-26T14:17:30.405Z,4.13
2018-04-26T14:19:56.958Z,4.20
2018-04-26T14:22:23.638Z,3.97
2018-04-26T14:24:50.287Z,4.22
2018-04-26T14:27:20.443Z,4.35
2018-04-26T14:29:47.106Z,4.40
2018-04-26T14:32:13.746Z,4.40
2018-04-26T14:34:40.326Z,4.70
2018-04-26T14:37:10.747Z,4.12
2018-04-26T14:39:37.277Z,4.40
2018-04-26T14:42:03.824Z,5.37
2018-04-26T14:44:30.399Z,4.95
2018-04-26T14:47:16.864Z,4.15
2018-04-26T14:49:43.561Z,3.90
2018-04-26T14:52:10.169Z,4.00
2018-04-26T14:54:36.871Z,4.13
2018-04-26T14:57:06.710Z,3.83
2018-04-26T14:59:33.355Z,4.67
2018-04-26T15:02:00.353Z,3.80
2018-04-26T15:04:27.105Z,4.40
2018-04-26T15:06:59.402Z,3.83
2018-04-26T15:09:26.047Z,4.07
2018-04-26T15:11:52.739Z,3.93
2018-04-26T15:14:19.382Z,4.13
2018-04-26T15:16:53.742Z,4.40
2018-04-26T15:19:20.541Z,4.50
2018-04-26T15:21:47.328Z,4.43
2018-04-26T15:24:13.890Z,4.17
2018-04-26T15:26:41.827Z,5.23
2018-04-26T15:29:08.507Z,4.37
2018-04-26T15:31:35.146Z,4.40
2018-04-26T15:34:01.928Z,4.17
2018-04-26T15:36:39.796Z,4.40
2018-04-26T15:39:06.425Z,4.43
2018-04-26T15:41:32.959Z,4.67
2018-04-26T15:43:59.646Z,4.53
2018-04-26T15:46:36.609Z,5.07
2018-04-26T15:49:03.241Z,4.90
2018-04-26T15:51:29.971Z,4.80
2018-04-26T15:54:08.351Z,4.17
2018-04-26T15:56:53.601Z,3.97
2018-04-26T15:59:32.208Z,4.33
2018-04-26T16:02:25.476Z,3.67
2018-04-26T16:05:04.093Z,4.00
2018-04-26T16:07:49.601Z,3.83
2018-04-26T16:10:28.117Z,4.00
2018-04-26T16:13:12.814Z,3.87
2018-04-26T16:16:03.302Z,3.83
2018-04-26T16:18:42.718Z,4.33
2018-04-26T16:21:27.299Z,4.47
2018-04-26T16:27:27.974Z,4.60
2018-04-26T16:30:06.325Z,4.83
2018-04-26T16:32:44.932Z,4.40
2018-04-26T16:35:23.580Z,4.27
2018-04-26T16:38:07.998Z,4.33
2018-04-26T16:40:34.693Z,4.73
2018-04-26T16:43:01.451Z,4.80
2018-04-26T16:45:29.178Z,4.20
2018-04-26T16:47:55.830Z,4.30
2018-04-26T16:50:22.539Z,5.57
2018-04-26T16:52:49.154Z,6.13
2018-04-26T16:55:16.846Z,4.83
2018-04-26T16:57:43.478Z,5.30
2018-04-26T17:00:10.082Z,4.63
2018-04-26T17:02:36.771Z,4.40
2018-04-26T17:05:04.713Z,4.23
2018-04-26T17:07:31.416Z,4.60
2018-04-26T17:09:58.038Z,4.73
2018-04-26T17:12:24.768Z,4.70
2018-04-26T17:14:51.441Z,4.30
2018-04-26T17:17:18.122Z,6.03
2018-04-26T17:19:44.877Z,4.13
2018-04-26T17:22:11.527Z,4.70
2018-04-26T17:24:38.162Z,4.90
2018-04-26T17:27:08.744Z,5.20
2018-04-26T17:29:35.512Z,5.50
2018-04-26T17:32:02.062Z,4.57
2018-04-26T17:34:28.779Z,4.20
2018-04-26T17:36:59.173Z,4.63
2018-04-26T17:39:25.751Z,4.70
2018-04-26T17:41:52.330Z,4.90
2018-04-26T17:44:18.875Z,4.47
2018-04-26T17:46:46.644Z,4.37
2018-04-26T17:49:13.386Z,4.90
2018-04-26T17:51:40.086Z,4.13
2018-04-26T17:54:06.730Z,4.60
2018-04-26T17:56:35.352Z,4.37
2018-04-26T17:59:02.124Z,4.40
2018-04-26T18:01:28.825Z,4.67
2018-04-26T18:03:55.597Z,5.10
2018-04-26T18:06:22.443Z,4.90
2018-04-26T18:08:49.124Z,4.90
2018-04-26T18:11:15.823Z,4.40
2018-04-26T18:13:42.478Z,4.13
2018-04-26T18:16:12.525Z,4.83
2018-04-26T18:18:39.277Z,4.77
2018-04-26T18:21:05.978Z,4.87
2018-04-26T18:23:32.596Z,5.47
2018-04-26T18:26:00.179Z,5.70
2018-04-26T18:28:26.961Z,5.77
2018-04-26T18:30:53.745Z,5.53
2018-04-26T18:33:20.449Z,5.47
2018-04-26T18:35:51.212Z,5.77
2018-04-26T18:38:17.762Z,5.07
2018-04-26T18:40:45.046Z,3.97
2018-04-26T18:43:11.835Z,5.07
2018-04-26T18:45:40.234Z,4.67
2018-04-26T18:48:06.963Z,4.30
2018-04-26T18:50:33.639Z,4.17
2018-04-26T18:53:00.407Z,3.83
2018-04-26T18:55:30.724Z,4.63
2018-04-26T18:57:57.503Z,4.03
2018-04-26T19:00:24.239Z,4.60
2018-04-26T19:02:50.982Z,3.90
2018-04-26T19:05:20.846Z,5.30
2018-04-26T19:07:47.575Z,4.80
2018-04-26T19:10:14.286Z,4.70
2018-04-26T19:12:41.067Z,5.07
2018-04-26T19:15:10.928Z,5.43
2018-04-26T19:17:37.799Z,5.03
2018-04-26T19:20:04.495Z,4.87
2018-04-26T19:22:31.265Z,4.50
2018-04-26T19:24:59.155Z,4.80
2018-04-26T19:27:25.725Z,5.40
2018-04-26T19:29:52.598Z,5.40
2018-04-26T19:32:19.281Z,5.10
2018-04-26T19:34:51.949Z,4.80
2018-04-26T19:37:18.523Z,4.87
2018-04-26T19:39:45.317Z,4.80
2018-04-26T19:42:11.991Z,4.77
2018-04-26T19:44:42.282Z,5.40
2018-04-26T19:47:08.995Z,5.13
2018-04-26T19:49:35.719Z,4.90
2018-04-26T19:52:02.440Z,5.70
2018-04-26T19:54:32.927Z,5.77
2018-04-26T19:56:59.609Z,5.77
2018-04-26T19:59:26.349Z,5.57
2018-04-26T20:01:53.008Z,5.30
2018-04-26T20:04:19.777Z,5.00
2018-04-26T20:06:46.632Z,5.20
2018-04-26T20:09:13.380Z,6.00
2018-04-26T20:11:40.118Z,5.47
2018-04-26T20:14:06.736Z,5.30
2018-04-26T20:16:40.812Z,5.70
2018-04-26T20:19:07.421Z,5.50
2018-04-26T20:21:34.125Z,5.27
2018-04-26T20:24:00.818Z,5.53
2018-04-26T20:26:30.940Z,5.70
2018-04-26T20:28:57.691Z,5.40
2018-04-26T20:31:24.354Z,5.73
2018-04-26T20:33:51.066Z,5.83
2018-04-26T20:36:21.230Z,6.50
2018-04-26T20:38:48.402Z,7.17
2018-04-26T20:41:15.092Z,5.90
2018-04-26T20:43:41.736Z,6.00
2018-04-26T20:46:12.206Z,6.50
2018-04-26T20:48:40.761Z,5.93
2018-04-26T20:51:07.423Z,6.57
2018-04-26T20:53:34.156Z,6.33
2018-04-26T20:56:04.152Z,6.00
2018-04-26T20:58:30.780Z,5.83
2018-04-26T21:00:57.583Z,6.50
2018-04-26T21:03:24.205Z,5.87
2018-04-26T21:05:51.025Z,6.43
2018-04-26T21:08:17.817Z,5.90
2018-04-26T21:10:44.456Z,5.70
2018-04-26T21:13:11.097Z,6.00
2018-04-26T21:15:41.538Z,6.53
2018-04-26T21:18:08.092Z,5.63
2018-04-26T21:20:34.772Z,5.53
2018-04-26T21:23:01.570Z,6.40
2018-04-26T21:25:29.379Z,5.80
2018-04-26T21:27:56.051Z,6.60
2018-04-26T21:30:22.666Z,6.03
2018-04-26T21:32:49.957Z,5.93
2018-04-26T21:35:20.014Z,6.33
2018-04-26T21:37:46.718Z,6.50
2018-04-26T21:40:13.346Z,6.57
2018-04-26T21:42:40.032Z,6.60
2018-04-26T21:45:06.789Z,6.97
2018-04-26T21:47:33.483Z,6.23
2018-04-26T21:50:06.151Z,6.17
2018-04-26T21:52:38.780Z,5.77
2018-04-26T21:55:12.488Z,5.33
2018-04-26T21:57:44.917Z,5.37
2018-04-26T22:00:17.529Z,5.40
2018-04-26T22:02:43.862Z,5.77
2018-04-26T22:05:32.206Z,6.03
2018-04-26T22:07:59.018Z,6.20
2018-04-26T22:10:26.089Z,5.53
2018-04-26T22:12:52.718Z,5.90
2018-04-26T22:15:20.348Z,6.40
2018-04-26T22:17:47.188Z,6.40
2018-04-26T22:20:13.895Z,6.27
2018-04-26T22:22:40.489Z,5.97
2018-04-26T22:25:13.633Z,6.27
2018-04-26T22:27:40.348Z,6.37
2018-04-26T22:30:06.913Z,6.80
2018-04-26T22:32:33.598Z,6.33
2018-04-26T22:35:03.672Z,6.10
2018-04-26T22:37:30.481Z,5.83
2018-04-26T22:39:57.440Z,5.77
2018-04-26T22:42:23.988Z,5.97
2018-04-26T22:44:51.681Z,6.23
2018-04-26T22:47:18.374Z,6.20
2018-04-26T22:49:48.146Z,6.30
2018-04-26T22:52:14.838Z,6.40
2018-04-26T22:54:42.554Z,6.30
2018-04-26T22:57:09.230Z,6.43
2018-04-26T22:59:35.925Z,7.03
2018-04-26T23:02:02.662Z,6.77
2018-04-26T23:04:30.466Z,6.87
2018-04-26T23:06:57.193Z,6.50
2018-04-26T23:09:23.935Z,6.37
2018-04-26T23:11:50.705Z,5.90
2018-04-26T23:14:21.986Z,5.23
2018-04-26T23:16:49.025Z,5.60
2018-04-26T23:19:15.653Z,5.90
2018-04-26T23:21:42.188Z,6.07
2018-04-26T23:24:12.984Z,5.90
2018-04-26T23:26:39.574Z,5.60
2018-04-26T23:29:06.355Z,5.60
2018-04-26T23:31:32.973Z,5.80
2018-04-26T23:33:59.610Z,5.60
2018-04-26T23:36:26.818Z,5.63
2018-04-26T23:38:53.569Z,4.90
2018-04-26T23:41:20.255Z,5.27
2018-04-26T23:43:47.357Z,5.17
2018-04-26T23:46:18.409Z,4.33
2018-04-26T23:48:45.065Z,4.77
2018-04-26T23:51:11.712Z,4.60
2018-04-26T23:53:38.304Z,4.30
2018-04-26T23:56:08.728Z,4.27
2018-04-26T23:58:35.340Z,4.53
